Aerodrome Latest Weathers

# Airport/Station Observation Time (Local Time) Wind Visibility (km) Weather Temp. (°C) Dewdrop (°C) Air Pressure (hPa)
Direction (from) Speed (km/h)
1 Sultan Iskandar Muda - Banda Aceh 2021-10-17 17:00:00 WIB Selatan 18.5 9.0 Hujan ringan 27 23 1007
2 Cut Nyak Dien Nagan Raya - Meulaboh, NAD 2021-10-17 16:00:00 WIB Barat 5.6 >=10 Berawan 31 26 1007
3 Malikus Saleh - Lhokseumawe 2021-10-17 17:00:00 WIB Utara 13.0 7.0 Berawan 30 25 1007
4 Binaka - Gunung Sitoli 2021-10-17 17:00:00 WIB Barat 18.5 5.0 Hujan ringan 26 25 1007
5 Kualanamu International Airport - Deli Serdang 2021-10-17 17:00:00 WIB Utara 14.8 >=10 Berawan 30 25 1007
6 Dr. Ferdinand Lumban Tobing - Pinangsori (Sibolga) 2021-10-17 17:00:00 WIB Barat 9.3 >=10 Berawan 29 24 1006
7 Silangit - Tapanuli Utara 2021-10-17 17:00:00 WIB Selatan 5.6 >=10 Berawan 20 19 1015
8 Aek Godang - Padang Sidempuan 2021-10-17 17:00:00 WIB Timur Laut 3.7 6.0 Guntur 24 23 1008
9 Minangkabau International Airport - Padang 2021-10-17 17:07:00 WIB Utara 9.3 >=10 Berawan 27 25 1007
10 Sultan Syarif Kasim II - Pekanbaru 2021-10-17 16:30:00 WIB Barat Laut 11.1 3.0 Guntur dan hujan ringan 26 25 1007
11 Depati Parbo - Kerinci 2021-10-17 17:00:00 WIB Selatan 5.6 2.0 Hujan ringan 24 21 1012
12 Japura - Rengat 2021-10-17 17:00:00 WIB Tenang 6.0 Hujan ringan 23 23 1007
13 Fatmawati Sukarno - Bengkulu 2021-10-17 17:00:00 WIB Tenggara 9.3 >=10 Berawan 28 25 1006
14 Raja Haji Abdullah - Tanjung Balai Karimun 2021-10-17 16:00:00 WIB Selatan 7.4 8.0 Hujan ringan 28 25 1007
15 Sultan Thaha - Jambi 2021-10-17 17:00:00 WIB Timur Laut 5.6 >=10 Cerah - berawan 27 25 1007
16 Hang Nadim - Batam 2021-10-17 17:00:00 WIB Utara 9.3 8.0 Hujan ringan 26 25 1009
17 Raja Haji Fisabilillah - Tanjung Pinang 2021-10-17 17:00:00 WIB Utara 3.7 9.0 Berawan 26 24 1008
18 Dabo - Singkep 2021-10-17 16:00:00 WIB Tenang 6.0 Hujan ringan 26 25 1007
19 Sultan Mahmud Badaruddin II - Palembang 2021-10-17 17:00:00 WIB Utara 7.4 >=10 Berawan 27 24 1006
20 Radin Inten II - Lampung 2021-10-17 17:00:00 WIB Tenggara 16.7 >=10 Berawan 30 23 1006
21 Depati Amir - Pangkal Pinang 2021-10-17 17:00:00 WIB Barat Laut 14.8 1.0 Guntur dan hujan 23 22 1008
22 Budiarto - Curug 2021-10-17 16:00:00 WIB Utara 16.7 >=10 Berawan 32 25 1006
23 Soekarno Hatta - Jakarta 2021-10-17 17:00:00 WIB Timur Laut 18.5 8.0 Cerah - berawan 31 26 1006
24 Halim Perdana Kusuma - Jakarta 2021-10-17 17:00:00 WIB Timur Laut 22.2 5.0 Udara kabur 32 23 1006
25 Husein Sastranegara - Bandung 2021-10-17 16:00:00 WIB Barat Daya 13.0 5.0 Guntur ringan 23 22 1011
26 Suryadarma - Kalijati, Subang 2021-10-17 15:00:00 WIB Timur Laut 22.2 7.0 Cerah - berawan 32 26 1006
27 H.A.S. Hanandjoeddin - Tanjung Pandan 2021-10-17 17:00:00 WIB Timur Laut 3.7 >=10 Berawan 29 26 1007
28 Kertajati 2021-10-17 17:00:00 WIB Timur Laut 11.1 >=10 Cerah - berawan 31 23 1005
29 Wiriadinata - Cibeureum, Tasikmalaya 2021-10-17 16:00:00 WIB Timur 14.8 4.0 Udara kabur 29 24 1008
30 Ranai - Natuna 2021-10-17 17:00:00 WIB Variabel 3.7 >=10 Cerah - berawan 25 25 1007
31 Cakrabhuwana / Penggung - Cirebon 2021-10-17 17:00:00 WIB Timur 13.0 Cerah 30 24 1006
32 Tunggul Wulung - Cilacap 2021-10-17 17:00:00 WIB Tenggara 16.7 Cerah 28 26 1006
33 Supadio - Pontianak 2021-10-17 17:05:00 WIB Barat Laut 27.8 8.0 Berawan 28 25 1007
34 Rahadi Oesman - Ketapang 2021-10-17 17:00:00 WIB Utara 9.3 >=10 Cerah - berawan 29 25 1006
35 Yogyakarta International Airport - Kulonprogo 2021-10-17 17:00:00 WIB Tenggara 22.2 >=10 Berawan 28 24 1007
36 Ahmad Yani - Semarang 2021-10-17 17:00:00 WIB Barat Laut 16.7 >=10 Berawan 31 24 1006
37 Adi Soemarmo - Surakarta 2021-10-17 17:00:00 WIB Tenggara 13.0 7.0 Guntur 31 23 1006
38 Tebelian - Sintang 2021-10-17 17:00:00 WIB Timur Laut 5.6 8.0 Berawan 30 24 1008
39 Iskandar - Pangkalan Bun 2021-10-17 16:30:00 WIB Timur 5.6 9.0 Berawan 30 23 1006
40 Nanga Pinoh 2021-10-17 17:00:00 WIB Timur Laut 3.7 >=10 Berawan 32 26 1007
41 Juanda - Surabaya 2021-10-17 17:00:00 WIB Timur 22.2 >=10 Cerah - berawan 31 25 1007
42 Pangsuma - Putussibau 2021-10-17 16:00:00 WIB Utara 7.4 6.0 Guntur dan hujan ringan 26 24 1009
43 Haji Asan - Sampit 2021-10-17 17:00:00 WIB Timur 5.6 8.0 Hujan tiba-tiba di sekitarnya 28 25 1007
44 Tjilik Riwut - Palangkaraya 2021-10-17 17:00:00 WIB Selatan 9.3 9.0 Berawan 28 25 1008
45 Banyuwangi 2021-10-17 17:00:00 WIB Tenggara 7.4 >=10 Berawan 28 26 1009
46 Beringin - Muara Teweh 2021-10-17 17:00:00 WIB Tenang 7.0 Berawan 25 24 1008
47 Sanggu - Buntok 2021-10-17 16:00:00 WIB Tenang 7.0 Berawan 25 25 1009
48 H. Hasan Aroeboesman - Ende 2021-10-17 16:00:00 WIB Timur Laut 3.7 >=10 Berawan 28 26 1008
49 Syamsudin Noor - Banjarmasin 2021-10-17 18:07:00 WITA Variabel 3.7 4.9 Hujan 24 24 1008
50 I Gusti Ngurah Rai - Denpasar 2021-10-17 18:00:00 WITA Timur 7.4 >=10 Berawan 28 25 1008
51 Yuvai Semaring - Long Bawang 2021-10-17 17:00:00 WITA Barat Laut 14.8 8.0 Berawan 26 20 1014
52 Gusti Sjamsir Alam - Kota Baru 2021-10-17 18:00:00 WITA Tenggara 3.7 8.0 Guntur 30 25 1007
53 Bandara Internasional Lombok - Praya 2021-10-17 18:00:00 WITA Timur 5.6 8.0 Berawan 25 24 1010
54 Bandar Udara Robert Atty Bessing 2021-10-17 16:00:00 WITA Timur 7.4 >=10 Berawan 32 25 1008
55 Sultan Aji Muhammad Sulaiman - Sepinggan 2021-10-17 18:00:00 WITA Timur 9.3 >=10 Cerah - berawan 29 25 1007
56 Aji Pangeran Tumenggung Pranoto - Samarinda 2021-10-17 18:00:00 WITA Timur Laut 7.4 >=10 Cerah - berawan 29 25 1007
57 Tanjung Harapan - Tanjung Selor 2021-10-17 18:00:00 WITA Tenang 7.0 Berawan 28 25 1007
58 Sultan Muhammad Kaharuddin - Sumbawa Besar 2021-10-17 18:00:00 WITA Tenggara 7.4 8.0 Berawan 29 28 1008
59 Kalimarau - Tanjung Redeb 2021-10-17 17:00:00 WITA Utara 7.4 >=10 Berawan 29 24 1008
60 Juwata - Tarakan 2021-10-17 18:00:00 WITA Tenang >=10 Cerah - berawan 30 27 1008
61 Nunukan 2021-10-17 18:00:00 WITA Tenggara 7.4 8.0 Cerah - berawan 29 25 1007
62 Sultan Muhammad Salahuddin - Bima 2021-10-17 18:00:00 WITA Selatan 11.1 8.0 Hujan tiba-tiba di sekitarnya 30 25 1008
63 Tambolaka - Sumba Barat 2021-10-17 18:00:00 WITA Timur 11.1 8.0 Hujan tiba-tiba di sekitarnya 28 24 1010
64 Sultan Hasanuddin - Makassar 2021-10-17 18:00:00 WITA Timur 5.6 >=10 Berawan 25 24 1008
65 Pongtiku - Tana Toraja 2021-10-17 17:00:00 WITA Timur 5.6 >=10 Berawan 23 23 1007
66 Komodo - Labuan Bajo 2021-10-17 18:00:00 WITA Tenggara 3.7 8.0 Berawan 29 25 1010
67 Mutiara SIS Al-Jufri - Palu 2021-10-17 18:00:00 WITA Utara 18.5 9.0 Cerah - berawan 29 25 1009
68 Umbu Mehang Kunda - Waingapu 2021-10-17 18:00:00 WITA Timur 18.5 5.0 Berawan 29 26 1009
69 Andi Jemma - Masamba 2021-10-17 18:00:00 WITA Tenang 8.0 Berawan 31 24 1007
70 Frans Sales Lega - Ruteng 2021-10-17 18:00:00 WITA Barat Laut 7.4 5.0 Hujan 22 20 1016
71 Kasiguncu - Poso 2021-10-17 18:00:00 WITA Utara 3.7 9.0 Berawan 30 27 1008
72 Sultan Bantilan - Toli Toli 2021-10-17 18:00:00 WITA Tenang >=10 Berawan 29 25 1007
73 Sangia Nibandera - Kolaka 2021-10-17 17:00:00 WITA Timur Laut 1.9 8.0 Guntur dan hujan lebat 28 26 1007
74 Tardamu - Sabu 2021-10-17 18:00:00 WITA Tenggara 7.4 >=10 Cerah - berawan 29 25 1009
75 Fransiskus Xaverius Seda - Maumere 2021-10-17 18:00:00 WITA Barat Daya 14.8 >=10 Berawan 29 26 1010
76 Haluoleo - Kendari 2021-10-17 18:00:00 WITA Tenang >=10 Cerah - berawan 27 24 1010
77 Beto Ambari - Bau Bau 2021-10-17 18:00:00 WITA Timur Laut 5.6 >=10 Cerah - berawan 28 25 1011
78 Djalaluddin - Gorontalo 2021-10-17 18:00:00 WITA Utara 5.6 >=10 Cerah - berawan 29 24 1007
79 Gewayantana - Larantuka 2021-10-17 18:00:00 WITA Tenang >=10 Cerah - berawan 30 24 1008
80 David Constantijn Saudale - Rote 2021-10-17 18:00:00 WITA Tenggara 7.4 >=10 Berawan 28 25 1014
81 El Tari - Kupang 2021-10-17 18:00:00 WITA Timur 5.6 8.0 Hujan ringan 27 25 1010
82 Mali - Alor 2021-10-17 18:00:00 WITA Timur Laut 11.1 >=10 Berawan 30 25 1010
83 Sam Ratulangi - Manado 2021-10-17 18:00:00 WITA Variabel 1.9 >=10 Berawan 28 24 1009
84 Naha - Tahuna 2021-10-17 17:00:00 WITA Tenang 9.0 Berawan 30 26 1008
85 Emalamo - Sanana 2021-10-17 19:00:00 WIT Timur 7.4 9.0 Berawan 30 25 1009
86 Namniwel - Namlea 2021-10-17 17:00:00 WIT Utara 9.3 9.0 Berawan 30 27 1006
87 Sultan Babullah - Ternate 2021-10-17 19:00:00 WIT Variabel 3.7 >=10 Berawan 28 24 1010
88 Oesman Sadik - Labuha 2021-10-17 19:00:00 WIT Barat Daya 3.7 9.0 Cerah - berawan 28 22 1008
89 Gamar Malamo - Galela 2021-10-17 18:00:00 WIT Tenang 7.0 Berawan 29 27 1008
90 Pattimura - Ambon 2021-10-17 19:00:00 WIT Timur Laut 14.8 2.0 Guntur dan hujan lebat 27 25 1009
91 Pitu - Morotai 2021-10-17 19:00:00 WIT Timur Laut 5.6 9.0 Cerah - berawan 29 26 1009
92 Amahai 2021-10-17 19:00:00 WIT Tenang >=10 Berawan 27 25 1008
93 Bandaneira - Banda 2021-10-17 19:00:00 WIT Barat 3.7 Cerah 29 25 1010
94 Domine Eduard Osok - Sorong 2021-10-17 19:00:00 WIT Variabel 3.7 8.0 Berawan 28 25 1008
95 Mathilda Batlayeri - Saumlaki 2021-10-17 18:00:00 WIT Timur 7.4 >=10 Berawan 29 25 1009
96 Torea - Fak Fak 2021-10-17 18:00:00 WIT Timur 3.7 7.0 Berawan 28 24 1009
97 Dumatubun - Langgur 2021-10-17 19:00:00 WIT Tenang 4.0 Berawan 27 26 1010
98 Utarom - Kaimana 2021-10-17 18:00:00 WIT Tenang >=10 Berawan 30 24 1008
99 Rendani - Manokwari 2021-10-17 19:00:00 WIT Tenggara 5.6 8.0 Berawan 28 25 1009
100 Douw Aturure - Nabire 2021-10-17 19:00:00 WIT Selatan 5.6 5.0 Hujan ringan 25 24 1009
101 Stevanus Rumbewas - Serui 2021-10-17 18:00:00 WIT Tenang 8.0 Berawan 28 25 1008
102 Frans Kaisiepo - Biak 2021-10-17 19:00:00 WIT Variabel 3.7 >=10 Berawan 27 24 1010
103 Enarotali 2021-10-17 19:00:00 WIT Tenang 1.5 Hujan ringan 18 16 1011
104 Mozes Kilangin - Timika 2021-10-17 19:00:00 WIT Utara 9.3 7.0 Berawan 24 24 1012
105 Mararena / Orai - Sarmi 2021-10-17 18:00:00 WIT Tenang >=10 Cerah - berawan 27 25 1009
106 Wamena 2021-10-17 19:00:00 WIT Barat 3.7 7.0 Hujan tiba-tiba di sekitarnya 20 16 1022
107 Mopah - Merauke 2021-10-17 19:00:00 WIT Tenang 8.0 Cerah - berawan 29 26 1009
108 Sentani - Jayapura 2021-10-17 19:00:00 WIT Tenang >=10 Cerah - berawan 27 23 1010

Satellite Images

Wave Height Forecast

Wind Forecast

Forest Fires